createdAt,value
2018-09-26T00:03:14.793Z,21.00
2018-09-26T00:08:18.347Z,21.00
2018-09-26T00:13:21.573Z,21.00
2018-09-26T00:18:25.199Z,21.00
2018-09-26T00:23:28.737Z,21.00
2018-09-26T00:28:32.036Z,21.00
2018-09-26T00:33:35.243Z,21.00
2018-09-26T00:38:38.702Z,21.00
2018-09-26T00:43:42.042Z,20.90
2018-09-26T00:48:45.268Z,20.90
2018-09-26T00:53:48.616Z,20.90
2018-09-26T00:58:51.969Z,20.90
2018-09-26T01:03:55.146Z,20.90
2018-09-26T01:08:58.310Z,20.90
2018-09-26T01:14:02.547Z,20.90
2018-09-26T01:19:05.707Z,20.90
2018-09-26T01:24:09.273Z,20.90
2018-09-26T01:29:12.500Z,20.80
2018-09-26T01:34:15.724Z,20.80
2018-09-26T01:39:19.113Z,20.80
2018-09-26T01:44:22.380Z,20.80
2018-09-26T01:49:25.873Z,20.80
2018-09-26T01:54:29.123Z,20.80
2018-09-26T01:59:32.318Z,20.80
2018-09-26T02:04:35.701Z,20.70
2018-09-26T02:09:39.001Z,20.70
2018-09-26T02:14:42.638Z,20.70
2018-09-26T02:19:45.877Z,20.70
2018-09-26T02:24:49.108Z,20.70
2018-09-26T02:29:52.474Z,20.70
2018-09-26T02:34:55.693Z,20.70
2018-09-26T02:39:59.034Z,20.70
2018-09-26T02:45:02.246Z,20.70
2018-09-26T02:50:05.845Z,20.70
2018-09-26T02:55:09.103Z,20.60
2018-09-26T03:00:12.407Z,20.60
2018-09-26T03:05:16.093Z,20.60
2018-09-26T03:10:19.920Z,20.60
2018-09-26T03:15:23.131Z,20.60
2018-09-26T03:25:36.287Z,20.60
2018-09-26T03:30:39.576Z,20.60
2018-09-26T03:35:43.134Z,20.60
2018-09-26T03:40:46.434Z,20.60
2018-09-26T03:45:49.871Z,20.60
2018-09-26T03:50:53.276Z,20.50
2018-09-26T03:55:56.485Z,20.50
2018-09-26T04:01:00.180Z,20.50
2018-09-26T04:06:03.768Z,20.50
2018-09-26T04:11:07.628Z,20.50
2018-09-26T04:16:11.259Z,20.50
2018-09-26T04:21:14.580Z,20.40
2018-09-26T04:26:18.158Z,20.40
2018-09-26T04:31:21.754Z,20.50
2018-09-26T04:36:25.757Z,20.40
2018-09-26T04:41:29.037Z,20.40
2018-09-26T04:46:32.323Z,20.40
2018-09-26T04:51:36.420Z,20.40
2018-09-26T04:56:40.231Z,20.30
2018-09-26T05:01:43.584Z,20.40
2018-09-26T05:06:46.825Z,20.40
2018-09-26T05:11:50.120Z,20.30
2018-09-26T05:16:53.764Z,20.30
2018-09-26T05:21:59.058Z,20.30
2018-09-26T05:27:02.285Z,20.30
2018-09-26T05:32:06.546Z,20.40
2018-09-26T05:37:09.865Z,20.30
2018-09-26T05:42:13.304Z,20.30
2018-09-26T05:47:16.534Z,20.40
2018-09-26T05:52:19.876Z,20.30
2018-09-26T05:57:23.152Z,20.30
2018-09-26T06:02:27.056Z,20.30
2018-09-26T06:07:30.589Z,20.30
2018-09-26T06:12:34.387Z,20.40
2018-09-26T06:17:37.942Z,20.40
2018-09-26T06:22:41.747Z,20.40
2018-09-26T06:27:46.076Z,20.50
2018-09-26T06:32:49.409Z,20.50
2018-09-26T06:37:52.720Z,20.50
2018-09-26T06:42:56.054Z,20.60
2018-09-26T06:47:59.443Z,20.60
2018-09-26T06:53:03.174Z,20.60
2018-09-26T06:58:06.448Z,20.60
2018-09-26T07:03:10.193Z,20.60
2018-09-26T07:08:13.539Z,20.60
2018-09-26T07:13:17.061Z,20.60
2018-09-26T07:18:20.372Z,20.60
2018-09-26T07:23:23.860Z,20.70
2018-09-26T07:28:27.343Z,20.70
2018-09-26T07:33:30.817Z,20.80
2018-09-26T07:38:35.157Z,20.80
2018-09-26T07:43:38.837Z,20.90
2018-09-26T07:48:42.496Z,20.90
2018-09-26T07:53:45.891Z,20.90
2018-09-26T07:58:49.854Z,21.00
2018-09-26T08:03:55.117Z,21.00
2018-09-26T08:08:59.441Z,21.00
2018-09-26T08:14:03.686Z,21.00
2018-09-26T08:19:06.896Z,21.10
2018-09-26T08:24:10.338Z,21.10
2018-09-26T08:29:13.651Z,21.10
2018-09-26T08:34:16.905Z,21.20
2018-09-26T08:39:20.109Z,21.20
2018-09-26T08:44:23.744Z,21.30
2018-09-26T08:49:27.139Z,21.30
2018-09-26T08:54:31.245Z,21.40
2018-09-26T08:59:34.493Z,21.40
2018-09-26T09:04:37.772Z,21.40
2018-09-26T09:09:41.089Z,21.20
2018-09-26T09:14:44.897Z,20.40
2018-09-26T09:19:51.893Z,20.10
2018-09-26T09:24:55.295Z,19.90
2018-09-26T09:29:58.828Z,20.00
2018-09-26T09:35:02.170Z,20.00
2018-09-26T09:40:05.714Z,20.10
2018-09-26T09:45:09.580Z,19.90
2018-09-26T09:50:12.919Z,20.10
2018-09-26T09:55:16.700Z,20.20
2018-09-26T10:00:20.174Z,20.40
2018-09-26T10:05:23.544Z,20.60
2018-09-26T10:10:27.145Z,20.70
2018-09-26T10:15:30.770Z,20.80
2018-09-26T10:20:34.421Z,20.90
2018-09-26T10:25:37.642Z,21.00
2018-09-26T10:30:41.039Z,21.00
2018-09-26T10:35:44.916Z,21.10
2018-09-26T10:40:48.607Z,21.20
2018-09-26T10:45:52.019Z,21.30
2018-09-26T10:50:55.289Z,21.30
2018-09-26T10:55:58.636Z,21.40
2018-09-26T11:01:02.163Z,21.40
2018-09-26T11:06:05.851Z,21.40
2018-09-26T11:11:09.316Z,21.50
2018-09-26T11:16:12.907Z,21.40
2018-09-26T11:21:16.894Z,21.50
2018-09-26T11:26:21.045Z,21.40
2018-09-26T11:31:24.326Z,21.50
2018-09-26T11:36:27.985Z,21.50
2018-09-26T11:41:32.367Z,21.50
2018-09-26T11:46:36.366Z,21.50
2018-09-26T11:51:40.096Z,21.60
2018-09-26T11:56:43.555Z,21.60
2018-09-26T12:01:46.979Z,21.60
2018-09-26T12:06:50.350Z,21.60
2018-09-26T12:11:54.114Z,21.60
2018-09-26T12:16:57.679Z,21.60
2018-09-26T12:22:02.132Z,21.60
2018-09-26T12:27:05.502Z,21.70
2018-09-26T12:32:09.070Z,21.60
2018-09-26T12:37:12.973Z,21.60
2018-09-26T12:42:16.321Z,21.60
2018-09-26T12:47:19.843Z,21.70
2018-09-26T12:52:23.819Z,21.60
2018-09-26T12:57:27.671Z,21.70
2018-09-26T13:02:31.529Z,21.70
2018-09-26T13:07:35.501Z,21.70
2018-09-26T13:12:39.101Z,21.60
2018-09-26T13:17:42.617Z,21.70
2018-09-26T13:22:45.827Z,21.60
2018-09-26T13:27:49.949Z,21.60
2018-09-26T13:32:53.414Z,21.60
2018-09-26T13:37:56.999Z,21.60
2018-09-26T13:43:00.404Z,21.60
2018-09-26T13:48:03.690Z,21.60
2018-09-26T13:53:07.073Z,21.60
2018-09-26T13:58:10.548Z,21.60
2018-09-26T14:03:13.970Z,21.60
2018-09-26T14:08:17.656Z,21.60
2018-09-26T14:13:20.752Z,21.60
2018-09-26T14:18:24.442Z,21.60
2018-09-26T14:23:28.156Z,21.50
2018-09-26T14:28:31.565Z,21.60
2018-09-26T14:33:35.534Z,21.70
2018-09-26T14:38:38.869Z,21.90
2018-09-26T14:43:42.152Z,22.00
2018-09-26T14:48:45.464Z,22.20
2018-09-26T14:53:49.020Z,22.30
2018-09-26T14:58:53.995Z,22.30
2018-09-26T15:03:59.362Z,22.40
2018-09-26T15:09:04.625Z,22.50
2018-09-26T15:14:08.277Z,22.50
2018-09-26T15:19:11.803Z,22.50
2018-09-26T15:24:15.207Z,22.60
2018-09-26T15:29:18.536Z,22.60
2018-09-26T15:34:21.993Z,22.60
2018-09-26T15:39:25.937Z,22.60
2018-09-26T15:44:29.358Z,22.60
2018-09-26T15:49:33.028Z,22.60
2018-09-26T15:54:37.697Z,22.60
2018-09-26T15:59:41.349Z,22.60
2018-09-26T16:04:44.728Z,22.70
2018-09-26T16:09:48.235Z,22.60
2018-09-26T16:14:52.363Z,22.70
2018-09-26T16:19:56.581Z,22.60
2018-09-26T16:25:00.699Z,22.60
2018-09-26T16:30:05.112Z,22.60
2018-09-26T16:35:09.149Z,22.60
2018-09-26T16:40:12.649Z,22.60
2018-09-26T16:45:16.375Z,22.60
2018-09-26T16:50:20.486Z,22.60
2018-09-26T16:55:24.290Z,22.60
2018-09-26T17:00:28.197Z,22.60
2018-09-26T17:05:31.701Z,22.60
2018-09-26T17:10:35.777Z,22.60
2018-09-26T17:15:40.373Z,22.60
2018-09-26T17:20:43.863Z,22.60
2018-09-26T17:25:48.917Z,22.60
2018-09-26T17:30:53.329Z,22.60
2018-09-26T17:35:57.495Z,22.60
2018-09-26T17:41:01.076Z,22.60
2018-09-26T17:46:05.592Z,22.60
2018-09-26T17:51:08.998Z,22.50
2018-09-26T17:56:12.668Z,22.50
2018-09-26T18:01:16.510Z,22.50
2018-09-26T18:12:06.159Z,22.60
2018-09-26T18:17:10.075Z,22.60
2018-09-26T18:22:13.871Z,22.60
2018-09-26T18:27:17.226Z,22.60
2018-09-26T18:32:20.754Z,22.70
2018-09-26T18:37:24.088Z,22.70
2018-09-26T18:42:27.558Z,22.70
2018-09-26T18:47:31.479Z,22.70
2018-09-26T18:52:37.822Z,22.70
2018-09-26T18:57:41.931Z,22.70
2018-09-26T19:02:45.548Z,22.60
2018-09-26T19:07:49.274Z,22.60
2018-09-26T19:12:52.732Z,22.60
2018-09-26T19:17:56.284Z,22.50
2018-09-26T19:22:59.670Z,22.50
2018-09-26T19:28:03.261Z,22.50
2018-09-26T19:33:06.771Z,22.50
2018-09-26T19:38:10.609Z,22.50
2018-09-26T19:43:14.017Z,22.50
2018-09-26T19:48:17.636Z,22.40
2018-09-26T19:53:21.706Z,22.40
2018-09-26T19:58:25.784Z,22.40
2018-09-26T20:03:29.912Z,22.40
2018-09-26T20:08:34.113Z,22.40
2018-09-26T20:13:37.768Z,22.40
2018-09-26T20:18:42.266Z,22.40
2018-09-26T20:23:46.518Z,22.50
2018-09-26T20:28:50.292Z,22.50
2018-09-26T20:33:54.002Z,22.50
2018-09-26T20:38:58.087Z,22.50
2018-09-26T20:44:01.654Z,22.40
2018-09-26T20:49:06.405Z,22.40
2018-09-26T20:54:10.206Z,22.40
2018-09-26T20:59:13.842Z,22.50
2018-09-26T21:04:17.261Z,22.40
2018-09-26T21:09:20.707Z,22.40
2018-09-26T21:14:24.873Z,22.40
2018-09-26T21:19:29.236Z,22.30
2018-09-26T21:24:34.309Z,22.30
2018-09-26T21:29:38.020Z,22.30
2018-09-26T21:34:41.655Z,22.30
2018-09-26T21:39:44.951Z,22.30
2018-09-26T21:44:48.363Z,22.30
2018-09-26T21:49:51.970Z,22.30
2018-09-26T21:54:55.656Z,22.30
2018-09-26T22:00:01.970Z,22.30
2018-09-26T22:05:06.426Z,22.30
2018-09-26T22:10:10.292Z,22.30
2018-09-26T22:15:19.192Z,22.30
2018-09-26T22:20:22.426Z,22.30
2018-09-26T22:25:25.850Z,22.30
2018-09-26T22:30:29.352Z,22.30
2018-09-26T22:35:32.615Z,22.30
2018-09-26T22:40:36.309Z,22.30
2018-09-26T22:45:41.009Z,22.30
2018-09-26T22:50:44.380Z,22.30
2018-09-26T22:55:47.653Z,22.30
2018-09-26T23:00:51.459Z,22.30
2018-09-26T23:05:54.864Z,22.30
2018-09-26T23:10:58.732Z,22.30
2018-09-26T23:16:02.010Z,22.20
2018-09-26T23:21:06.010Z,22.20
2018-09-26T23:26:09.409Z,22.20
2018-09-26T23:31:12.764Z,22.20
2018-09-26T23:36:16.033Z,22.20
2018-09-26T23:41:19.322Z,22.20
2018-09-26T23:46:22.778Z,22.20
2018-09-26T23:51:26.032Z,22.20
2018-09-26T23:56:29.575Z,22.20
